createdAt,value
2018-04-09T00:01:33.598Z,68.87
2018-04-09T00:04:01.004Z,72.33
2018-04-09T00:06:27.337Z,72.17
2018-04-09T00:08:53.709Z,75.00
2018-04-09T00:11:20.743Z,70.73
2018-04-09T00:13:47.740Z,67.47
2018-04-09T00:16:14.049Z,66.17
2018-04-09T00:18:40.319Z,69.40
2018-04-09T00:21:06.591Z,74.73
2018-04-09T00:23:33.639Z,68.87
2018-04-09T00:26:00.696Z,66.50
2018-04-09T00:28:27.766Z,69.57
2018-04-09T00:30:54.036Z,72.60
2018-04-09T00:33:20.328Z,62.00
2018-04-09T00:35:46.863Z,65.83
2018-04-09T00:38:13.171Z,75.57
2018-04-09T00:40:39.461Z,78.03
2018-04-09T00:43:05.766Z,72.13
2018-04-09T00:45:32.113Z,69.83
2018-04-09T00:47:58.427Z,71.77
2018-04-09T00:50:24.716Z,65.93
2018-04-09T00:52:51.714Z,67.30
2018-04-09T00:55:18.020Z,69.37
2018-04-09T00:57:44.321Z,71.97
2018-04-09T01:00:11.307Z,75.67
2018-04-09T01:02:37.633Z,64.30
2018-04-09T01:05:04.337Z,63.57
2018-04-09T01:07:31.388Z,68.63
2018-04-09T01:09:58.437Z,63.67
2018-04-09T01:12:25.477Z,69.57
2018-04-09T01:14:51.769Z,65.07
2018-04-09T01:17:18.056Z,65.73
2018-04-09T01:19:45.125Z,65.10
2018-04-09T01:22:11.522Z,68.10
2018-04-09T01:24:38.568Z,66.20
2018-04-09T01:27:05.551Z,62.13
2018-04-09T01:29:31.883Z,65.63
2018-04-09T01:31:58.185Z,66.83
2018-04-09T01:34:25.342Z,64.90
2018-04-09T01:36:52.383Z,62.93
2018-04-09T01:39:19.419Z,67.40
2018-04-09T01:41:45.696Z,65.90
2018-04-09T01:44:12.045Z,72.53
2018-04-09T01:46:38.323Z,65.20
2018-04-09T01:49:05.390Z,64.70
2018-04-09T01:51:31.748Z,69.17
2018-04-09T01:53:58.014Z,60.90
2018-04-09T01:56:24.323Z,68.37
2018-04-09T01:58:50.642Z,59.30
2018-04-09T02:01:16.959Z,75.23
2018-04-09T02:03:43.241Z,66.53
2018-04-09T02:06:10.247Z,69.97
2018-04-09T02:08:36.538Z,73.40
2018-04-09T02:11:03.591Z,65.17
2018-04-09T02:13:30.606Z,62.50
2018-04-09T02:15:58.378Z,63.43
2018-04-09T02:18:24.659Z,63.30
2018-04-09T02:20:51.108Z,62.77
2018-04-09T02:23:17.396Z,69.57
2018-04-09T02:25:43.689Z,63.90
2018-04-09T02:28:09.961Z,59.20
2018-04-09T02:30:36.278Z,62.47
2018-04-09T02:33:03.336Z,63.43
2018-04-09T02:35:30.418Z,63.50
2018-04-09T02:37:56.693Z,66.67
2018-04-09T02:40:23.756Z,69.30
2018-04-09T02:42:50.817Z,58.63
2018-04-09T02:45:17.124Z,61.60
2018-04-09T02:47:44.193Z,70.87
2018-04-09T02:50:10.480Z,71.10
2018-04-09T02:52:37.021Z,64.10
2018-04-09T02:55:03.272Z,66.77
2018-04-09T02:57:31.181Z,60.53
2018-04-09T02:59:57.478Z,65.40
2018-04-09T03:02:24.486Z,60.33
2018-04-09T03:04:50.752Z,62.13
2018-04-09T03:07:17.791Z,67.10
2018-04-09T03:09:44.852Z,63.27
2018-04-09T03:12:11.135Z,62.03
2018-04-09T03:14:37.411Z,66.53
2018-04-09T03:17:04.430Z,59.87
2018-04-09T03:19:30.730Z,67.00
2018-04-09T03:21:56.992Z,67.73
2018-04-09T03:24:23.247Z,64.73
2018-04-09T03:26:50.299Z,63.77
2018-04-09T03:29:17.352Z,65.33
2018-04-09T03:31:43.847Z,61.30
2018-04-09T03:34:10.102Z,65.73
2018-04-09T03:36:37.148Z,69.20
2018-04-09T03:39:04.174Z,62.03
2018-04-09T03:41:30.565Z,70.97
2018-04-09T03:43:56.850Z,69.33
2018-04-09T03:46:23.877Z,59.83
2018-04-09T03:48:50.180Z,62.00
2018-04-09T03:51:16.467Z,62.23
2018-04-09T03:53:43.720Z,63.77
2018-04-09T03:56:10.747Z,65.10
2018-04-09T03:58:37.029Z,64.40
2018-04-09T04:01:03.319Z,64.37
2018-04-09T04:03:29.632Z,67.43
2018-04-09T04:05:55.886Z,65.60
2018-04-09T04:08:22.936Z,69.70
2018-04-09T04:10:50.024Z,57.60
2018-04-09T04:13:17.216Z,61.57
2018-04-09T04:16:02.921Z,65.93
2018-04-09T04:18:46.593Z,57.90
2018-04-09T04:21:31.935Z,62.80
2018-04-09T04:23:58.979Z,62.37
2018-04-09T04:26:26.463Z,72.63
2018-04-09T04:28:52.702Z,64.70
2018-04-09T04:31:19.001Z,68.40
2018-04-09T04:33:46.084Z,67.13
2018-04-09T04:36:12.389Z,64.73
2018-04-09T04:38:39.412Z,64.47
2018-04-09T04:41:06.506Z,70.93
2018-04-09T04:43:32.864Z,63.93
2018-04-09T04:45:59.164Z,66.23
2018-04-09T04:48:25.587Z,67.67
2018-04-09T04:50:51.916Z,70.00
2018-04-09T04:53:18.936Z,67.83
2018-04-09T04:55:45.937Z,65.40
2018-04-09T04:58:12.212Z,60.50
2018-04-09T05:00:39.995Z,70.40
2018-04-09T05:03:07.126Z,59.93
2018-04-09T05:05:34.877Z,64.67
2018-04-09T05:08:01.133Z,58.60
2018-04-09T05:10:27.761Z,55.97
2018-04-09T05:12:54.086Z,57.00
2018-04-09T05:15:20.391Z,51.93
2018-04-09T05:17:46.647Z,52.20
2018-04-09T05:20:12.939Z,62.97
2018-04-09T05:22:39.248Z,52.70
2018-04-09T05:25:05.571Z,56.00
2018-04-09T05:27:32.559Z,60.30
2018-04-09T05:29:58.828Z,52.93
2018-04-09T05:32:25.081Z,57.57
2018-04-09T05:34:52.136Z,59.40
2018-04-09T05:37:18.404Z,51.80
2018-04-09T05:39:45.566Z,54.57
2018-04-09T05:42:11.900Z,52.73
2018-04-09T05:44:38.227Z,53.97
2018-04-09T05:47:04.541Z,51.30
2018-04-09T05:49:30.863Z,53.50
2018-04-09T05:51:57.139Z,49.00
2018-04-09T05:54:24.167Z,54.67
2018-04-09T05:56:51.203Z,52.03
2018-04-09T05:59:17.711Z,55.97
2018-04-09T06:01:44.163Z,61.13
2018-04-09T06:04:10.473Z,57.53
2018-04-09T06:06:36.748Z,64.77
2018-04-09T06:09:03.172Z,58.13
2018-04-09T06:11:29.842Z,60.20
2018-04-09T06:13:56.867Z,51.83
2018-04-09T06:16:23.143Z,55.53
2018-04-09T06:18:49.514Z,61.30
2018-04-09T06:21:15.796Z,61.90
2018-04-09T06:23:42.814Z,63.90
2018-04-09T06:26:09.437Z,65.47
2018-04-09T06:28:35.746Z,63.07
2018-04-09T06:31:02.193Z,67.00
2018-04-09T06:33:28.473Z,64.10
2018-04-09T06:35:55.673Z,63.23
2018-04-09T06:38:21.974Z,59.53
2018-04-09T06:40:48.288Z,67.53
2018-04-09T06:43:15.295Z,72.30
2018-04-09T06:45:41.623Z,65.37
2018-04-09T06:48:07.945Z,63.83
2018-04-09T06:50:34.220Z,66.60
2018-04-09T06:53:01.234Z,66.70
2018-04-09T06:55:27.525Z,54.87
2018-04-09T06:57:53.797Z,60.73
2018-04-09T07:00:20.117Z,60.13
2018-04-09T07:02:46.448Z,69.93
2018-04-09T07:05:12.735Z,62.17
2018-04-09T07:07:39.008Z,61.00
2018-04-09T07:10:05.316Z,61.90
2018-04-09T07:12:31.586Z,54.17
2018-04-09T07:14:57.923Z,54.17
2018-04-09T07:17:25.040Z,53.53
2018-04-09T07:19:51.369Z,56.17
2018-04-09T07:22:17.686Z,51.83
2018-04-09T07:24:43.940Z,60.47
2018-04-09T07:27:10.249Z,56.33
2018-04-09T07:29:36.563Z,59.10
2018-04-09T07:32:02.821Z,52.30
2018-04-09T07:34:29.134Z,58.80
2018-04-09T07:36:55.444Z,56.63
2018-04-09T07:39:22.481Z,55.83
2018-04-09T07:41:49.543Z,57.23
2018-04-09T07:44:15.904Z,53.00
2018-04-09T07:46:42.228Z,49.33
2018-04-09T07:49:08.508Z,52.80
2018-04-09T07:51:34.776Z,49.40
2018-04-09T07:54:01.974Z,46.27
2018-04-09T07:56:28.280Z,51.27
2018-04-09T07:58:54.586Z,62.10
2018-04-09T08:01:20.923Z,57.20
2018-04-09T08:03:47.380Z,50.10
2018-04-09T08:06:13.754Z,51.57
2018-04-09T08:08:40.006Z,53.03
2018-04-09T08:11:07.069Z,50.87
2018-04-09T08:13:33.374Z,52.90
2018-04-09T08:16:00.398Z,52.93
2018-04-09T08:18:26.857Z,54.20
2018-04-09T08:20:53.853Z,54.70
2018-04-09T08:23:21.093Z,56.27
2018-04-09T08:25:47.395Z,56.13
2018-04-09T08:28:13.639Z,50.07
2018-04-09T08:30:39.952Z,53.27
2018-04-09T08:33:07.072Z,49.03
2018-04-09T08:35:33.393Z,51.10
2018-04-09T08:37:59.684Z,59.10
2018-04-09T08:40:25.992Z,51.90
2018-04-09T08:42:53.030Z,45.87
2018-04-09T08:45:20.018Z,49.97
2018-04-09T08:47:46.373Z,47.03
2018-04-09T08:50:13.250Z,47.90
2018-04-09T08:52:40.283Z,54.43
2018-04-09T08:55:06.719Z,49.90
2018-04-09T08:57:34.564Z,47.27
2018-04-09T09:00:00.860Z,45.20
2018-04-09T09:02:31.411Z,45.73
2018-04-09T09:04:57.749Z,43.27
2018-04-09T09:07:24.056Z,51.30
2018-04-09T09:09:50.402Z,45.27
2018-04-09T09:12:16.984Z,45.83
2018-04-09T09:14:43.466Z,44.93
2018-04-09T09:17:09.805Z,47.70
2018-04-09T09:19:36.044Z,49.40
2018-04-09T09:22:02.327Z,40.87
2018-04-09T09:24:29.329Z,49.80
2018-04-09T09:26:55.643Z,46.83
2018-04-09T09:29:22.017Z,44.03
2018-04-09T09:31:50.825Z,46.70
2018-04-09T09:34:17.875Z,45.60
2018-04-09T09:36:44.956Z,41.33
2018-04-09T09:39:11.224Z,41.17
2018-04-09T09:41:38.264Z,39.87
2018-04-09T09:44:04.572Z,43.93
2018-04-09T09:46:30.889Z,37.33
2018-04-09T09:48:57.332Z,33.03
2018-04-09T09:51:23.641Z,29.83
2018-04-09T09:53:49.975Z,26.97
2018-04-09T09:56:16.586Z,32.67
2018-04-09T09:58:43.647Z,28.53
2018-04-09T10:01:10.665Z,33.07
2018-04-09T10:03:37.217Z,26.73
2018-04-09T10:06:04.268Z,32.63
2018-04-09T10:08:31.295Z,29.50
2018-04-09T10:10:58.345Z,30.57
2018-04-09T10:13:25.384Z,26.83
2018-04-09T10:15:51.680Z,25.83
2018-04-09T10:18:18.041Z,26.00
2018-04-09T10:20:44.404Z,25.40
2018-04-09T10:23:11.484Z,22.23
2018-04-09T10:25:38.544Z,24.07
2018-04-09T10:28:04.830Z,30.37
2018-04-09T10:30:32.385Z,17.67
2018-04-09T10:32:58.690Z,17.60
2018-04-09T10:35:25.285Z,18.20
2018-04-09T10:37:51.567Z,17.87
2018-04-09T10:40:17.897Z,17.57
2018-04-09T10:42:44.944Z,18.57
2018-04-09T10:45:11.245Z,23.37
2018-04-09T10:47:37.697Z,20.60
2018-04-09T10:50:03.977Z,17.40
2018-04-09T10:52:31.851Z,21.43
2018-04-09T10:54:58.195Z,18.40
2018-04-09T10:57:24.564Z,22.27
2018-04-09T10:59:50.880Z,16.03
2018-04-09T11:02:17.154Z,18.57
2018-04-09T11:04:44.278Z,22.43
2018-04-09T11:07:10.621Z,19.10
2018-04-09T11:09:37.823Z,17.47
2018-04-09T11:12:04.858Z,19.70
2018-04-09T11:14:31.260Z,23.63
2018-04-09T11:16:58.301Z,13.00
2018-04-09T11:19:24.621Z,14.40
2018-04-09T11:21:50.916Z,15.53
2018-04-09T11:24:17.243Z,11.67
2018-04-09T11:26:44.479Z,16.83
2018-04-09T11:29:11.516Z,12.70
2018-04-09T11:31:38.866Z,12.47
2018-04-09T11:34:05.910Z,10.70
2018-04-09T11:36:32.974Z,12.93
2018-04-09T11:39:00.263Z,16.30
2018-04-09T11:41:26.615Z,15.00
2018-04-09T11:43:52.946Z,16.63
2018-04-09T11:46:19.237Z,13.67
2018-04-09T11:48:45.566Z,13.37
2018-04-09T11:51:13.415Z,14.40
2018-04-09T11:53:40.437Z,14.00
2018-04-09T11:56:06.733Z,17.93
2018-04-09T11:58:33.052Z,12.80
2018-04-09T12:00:59.360Z,10.90
2018-04-09T12:03:26.365Z,13.23
2018-04-09T12:05:52.673Z,11.90
2018-04-09T12:08:18.943Z,13.00
2018-04-09T12:10:46.324Z,12.20
2018-04-09T12:13:13.398Z,10.80
2018-04-09T12:15:39.717Z,11.23
2018-04-09T12:18:06.698Z,12.00
2018-04-09T12:20:32.993Z,12.37
2018-04-09T12:23:10.653Z,12.83
2018-04-09T12:25:37.908Z,12.53
2018-04-09T12:28:04.181Z,11.43
2018-04-09T12:30:30.434Z,10.77
2018-04-09T12:32:56.714Z,11.23
2018-04-09T12:35:24.517Z,11.13
2018-04-09T12:37:50.824Z,10.33
2018-04-09T12:40:17.108Z,9.37
2018-04-09T12:42:44.311Z,9.60
2018-04-09T12:45:11.538Z,8.40
2018-04-09T12:47:39.600Z,10.30
2018-04-09T12:50:05.895Z,7.87
2018-04-09T12:52:32.178Z,8.13
2018-04-09T12:54:59.220Z,8.47
2018-04-09T12:57:25.739Z,8.90
2018-04-09T12:59:52.143Z,8.57
2018-04-09T13:02:18.597Z,11.60
2018-04-09T13:04:44.953Z,9.13
2018-04-09T13:07:12.005Z,9.43
2018-04-09T13:09:38.256Z,8.37
2018-04-09T13:12:04.525Z,7.10
2018-04-09T13:14:31.737Z,6.30
2018-04-09T13:16:58.143Z,6.07
2018-04-09T13:19:25.210Z,5.50
2018-04-09T13:21:51.538Z,5.17
2018-04-09T13:24:18.573Z,8.53
2018-04-09T13:26:44.914Z,4.93
2018-04-09T13:29:11.999Z,5.50
2018-04-09T13:31:38.236Z,4.53
2018-04-09T13:34:05.440Z,5.17
2018-04-09T13:36:32.504Z,9.63
2018-04-09T13:38:59.605Z,5.73
2018-04-09T13:41:25.883Z,5.83
2018-04-09T13:43:52.139Z,4.93
2018-04-09T13:46:18.463Z,5.10
2018-04-09T13:48:45.654Z,4.83
2018-04-09T13:51:11.960Z,5.27
2018-04-09T13:53:38.249Z,5.70
2018-04-09T13:56:04.556Z,8.33
2018-04-09T13:58:31.982Z,6.87
2018-04-09T14:00:58.230Z,6.50
2018-04-09T14:03:24.498Z,8.23
2018-04-09T14:05:50.778Z,10.90
2018-04-09T14:08:17.320Z,9.53
2018-04-09T14:10:43.604Z,8.03
2018-04-09T14:13:09.941Z,8.43
2018-04-09T14:15:36.237Z,11.53
2018-04-09T14:18:03.298Z,9.40
2018-04-09T14:20:30.351Z,8.83
2018-04-09T14:22:56.654Z,7.83
2018-04-09T14:25:24.147Z,8.53
2018-04-09T14:27:50.488Z,8.27
2018-04-09T14:30:16.910Z,7.20
2018-04-09T14:32:43.165Z,8.47
2018-04-09T14:35:09.507Z,6.67
2018-04-09T14:37:35.787Z,5.40
2018-04-09T14:40:03.021Z,7.07
2018-04-09T14:42:29.313Z,5.17
2018-04-09T14:44:55.597Z,7.47
2018-04-09T14:47:22.633Z,7.40
2018-04-09T14:49:49.655Z,7.03
2018-04-09T14:52:15.909Z,9.63
2018-04-09T14:54:42.447Z,10.60
2018-04-09T14:57:09.522Z,8.93
2018-04-09T14:59:35.856Z,9.90
2018-04-09T15:02:02.466Z,13.80
2018-04-09T15:04:28.759Z,10.03
2018-04-09T15:06:55.075Z,9.03
2018-04-09T15:09:21.374Z,11.07
2018-04-09T15:11:48.447Z,9.43
2018-04-09T15:14:14.749Z,9.97
2018-04-09T15:16:41.807Z,14.70
2018-04-09T15:19:08.117Z,9.40
2018-04-09T15:21:35.163Z,12.93
2018-04-09T15:24:02.209Z,10.43
2018-04-09T15:26:29.272Z,14.63
2018-04-09T15:28:56.316Z,9.97
2018-04-09T15:31:23.374Z,9.70
2018-04-09T15:33:50.480Z,10.90
2018-04-09T15:36:16.744Z,14.70
2018-04-09T15:38:43.791Z,11.20
2018-04-09T15:41:11.623Z,11.70
2018-04-09T15:43:37.919Z,11.73
2018-04-09T15:46:04.401Z,13.47
2018-04-09T15:48:30.924Z,12.10
2018-04-09T15:50:57.221Z,12.10
2018-04-09T15:53:24.277Z,16.73
2018-04-09T15:55:50.593Z,17.60
2018-04-09T15:58:16.901Z,13.30
2018-04-09T16:00:44.008Z,13.00
2018-04-09T16:03:10.335Z,15.20
2018-04-09T16:05:36.601Z,12.57
2018-04-09T16:08:03.672Z,14.97
2018-04-09T16:10:30.020Z,16.57
2018-04-09T16:12:56.300Z,14.10
2018-04-09T16:15:22.856Z,15.33
2018-04-09T16:18:03.447Z,16.50
2018-04-09T16:20:29.963Z,13.97
2018-04-09T16:22:57.034Z,14.80
2018-04-09T16:25:23.377Z,15.40
2018-04-09T16:27:49.737Z,17.07
2018-04-09T16:30:16.033Z,16.80
2018-04-09T16:32:42.349Z,13.30
2018-04-09T16:35:08.661Z,20.60
2018-04-09T16:37:35.019Z,19.50
2018-04-09T16:40:02.048Z,11.90
2018-04-09T16:42:28.366Z,18.17
2018-04-09T16:44:54.697Z,19.83
2018-04-09T16:47:21.947Z,19.70
2018-04-09T16:49:48.310Z,16.50
2018-04-09T16:52:15.394Z,14.13
2018-04-09T16:54:41.770Z,16.03
2018-04-09T16:57:08.369Z,20.37
2018-04-09T16:59:34.731Z,15.17
2018-04-09T17:02:01.030Z,18.97
2018-04-09T17:04:27.435Z,25.47
2018-04-09T17:06:54.578Z,22.67
2018-04-09T17:09:21.634Z,26.83
2018-04-09T17:11:47.927Z,23.03
2018-04-09T17:14:14.284Z,37.43
2018-04-09T17:16:41.445Z,40.10
2018-04-09T17:19:08.665Z,29.97
2018-04-09T17:21:35.033Z,36.67
2018-04-09T17:24:02.114Z,102.17
2018-04-09T17:26:28.434Z,27.50
2018-04-09T17:28:54.882Z,34.93
2018-04-09T17:31:21.214Z,25.80
2018-04-09T17:33:47.522Z,29.50
2018-04-09T17:36:13.918Z,29.93
2018-04-09T17:38:40.960Z,28.87
2018-04-09T17:41:07.412Z,26.90
2018-04-09T17:43:33.700Z,30.40
2018-04-09T17:46:00.031Z,29.67
2018-04-09T17:48:26.327Z,26.10
2018-04-09T17:50:52.987Z,28.27
2018-04-09T17:53:19.329Z,40.50
2018-04-09T17:55:45.697Z,41.93
2018-04-09T17:58:12.058Z,33.23
2018-04-09T18:00:38.405Z,35.80
2018-04-09T18:05:37.830Z,37.70
2018-04-09T18:08:04.238Z,39.73
2018-04-09T18:10:30.540Z,33.60
2018-04-09T18:12:56.888Z,34.70
2018-04-09T18:15:23.913Z,47.60
2018-04-09T18:17:50.287Z,38.13
2018-04-09T18:20:16.719Z,40.43
2018-04-09T18:22:43.084Z,36.97
2018-04-09T18:25:09.452Z,47.23
2018-04-09T18:27:35.812Z,34.53
2018-04-09T18:30:02.227Z,39.40
2018-04-09T18:32:29.565Z,37.63
2018-04-09T18:34:55.865Z,40.50
2018-04-09T18:37:22.159Z,37.63
2018-04-09T18:39:49.240Z,39.70
2018-04-09T18:42:15.502Z,44.17
2018-04-09T18:44:41.841Z,40.57
2018-04-09T18:47:08.950Z,42.80
2018-04-09T18:49:35.292Z,44.20
2018-04-09T18:52:01.599Z,40.70
2018-04-09T18:54:27.912Z,37.67
2018-04-09T18:56:55.128Z,34.63
2018-04-09T18:59:21.422Z,42.20
2018-04-09T19:01:47.734Z,38.70
2018-04-09T19:04:14.027Z,37.10
2018-04-09T19:06:40.349Z,39.07
2018-04-09T19:09:06.644Z,30.20
2018-04-09T19:11:33.010Z,36.70
2018-04-09T19:13:59.300Z,43.20
2018-04-09T19:16:25.604Z,35.03
2018-04-09T19:18:52.649Z,33.53
2018-04-09T19:21:19.745Z,36.43
2018-04-09T19:23:46.299Z,43.20
2018-04-09T19:26:12.595Z,45.73
2018-04-09T19:28:38.997Z,37.00
2018-04-09T19:31:05.575Z,37.00
2018-04-09T19:33:31.940Z,41.17
2018-04-09T19:36:04.388Z,39.97
2018-04-09T19:38:36.859Z,48.67
2018-04-09T19:41:03.149Z,40.73
2018-04-09T19:43:30.207Z,40.67
2018-04-09T19:45:56.552Z,38.60
2018-04-09T19:48:22.833Z,36.37
2018-04-09T19:50:49.146Z,40.23
2018-04-09T19:53:15.567Z,35.87
2018-04-09T19:55:41.915Z,32.43
2018-04-09T19:58:08.235Z,35.37
2018-04-09T20:00:34.527Z,35.40
2018-04-09T20:03:01.665Z,34.50
2018-04-09T20:05:28.808Z,37.33
2018-04-09T20:07:55.875Z,32.70
2018-04-09T20:10:22.158Z,31.90
2018-04-09T20:12:48.434Z,34.13
2018-04-09T20:15:15.493Z,34.70
2018-04-09T20:17:41.755Z,35.87
2018-04-09T20:20:08.783Z,26.17
2018-04-09T20:22:35.071Z,22.93
2018-04-09T20:25:01.364Z,26.60
2018-04-09T20:27:27.727Z,27.23
2018-04-09T20:29:54.026Z,21.47
2018-04-09T20:32:20.307Z,28.80
2018-04-09T20:34:46.659Z,25.30
2018-04-09T20:37:12.981Z,25.33
2018-04-09T20:39:39.339Z,24.53
2018-04-09T20:42:05.715Z,30.87
2018-04-09T20:44:32.013Z,23.27
2018-04-09T20:46:58.327Z,26.30
2018-04-09T20:49:24.635Z,27.23
2018-04-09T20:51:50.966Z,28.30
2018-04-09T20:54:17.266Z,25.43
2018-04-09T20:56:43.528Z,21.43
2018-04-09T20:59:09.826Z,25.27
2018-04-09T21:01:36.121Z,26.60
2018-04-09T21:04:02.446Z,28.43
2018-04-09T21:06:28.756Z,26.33
2018-04-09T21:08:56.766Z,28.10
2018-04-09T21:11:23.118Z,37.30
2018-04-09T21:13:49.410Z,44.80
2018-04-09T21:16:15.748Z,34.50
2018-04-09T21:18:42.026Z,37.27
2018-04-09T21:21:09.074Z,26.03
2018-04-09T21:23:36.118Z,35.83
2018-04-09T21:26:03.222Z,34.37
2018-04-09T21:28:29.562Z,31.67
2018-04-09T21:30:55.855Z,32.43
2018-04-09T21:33:22.222Z,35.13
2018-04-09T21:35:48.531Z,36.97
2018-04-09T21:38:14.805Z,34.00
2018-04-09T21:40:41.107Z,26.23
2018-04-09T21:43:07.479Z,36.40
2018-04-09T21:45:33.867Z,33.40
2018-04-09T21:48:00.159Z,31.87
2018-04-09T21:50:27.227Z,39.47
2018-04-09T21:52:53.501Z,26.90
2018-04-09T21:55:19.801Z,32.23
2018-04-09T21:57:46.148Z,34.93
2018-04-09T22:00:13.183Z,27.90
2018-04-09T22:02:39.505Z,29.53
2018-04-09T22:05:05.839Z,28.90
2018-04-09T22:07:32.101Z,25.53
2018-04-09T22:09:58.405Z,29.93
2018-04-09T22:12:24.709Z,35.47
2018-04-09T22:14:50.985Z,26.50
2018-04-09T22:17:17.546Z,30.70
2018-04-09T22:19:43.926Z,31.53
2018-04-09T22:22:10.229Z,30.13
2018-04-09T22:24:37.284Z,28.57
2018-04-09T22:27:03.608Z,26.23
2018-04-09T22:29:30.660Z,30.83
2018-04-09T22:31:56.998Z,33.70
2018-04-09T22:34:23.310Z,28.80
2018-04-09T22:36:50.320Z,31.70
2018-04-09T22:39:16.606Z,30.83
2018-04-09T22:41:42.876Z,30.40
2018-04-09T22:44:09.190Z,31.50
2018-04-09T22:46:35.467Z,30.37
2018-04-09T22:49:01.750Z,30.00
2018-04-09T22:51:28.052Z,28.93
2018-04-09T22:53:55.098Z,27.93
2018-04-09T22:56:22.141Z,31.33
2018-04-09T22:58:49.174Z,36.20
2018-04-09T23:01:16.225Z,32.83
2018-04-09T23:03:43.284Z,31.43
2018-04-09T23:06:09.598Z,32.20
2018-04-09T23:08:35.874Z,31.27
2018-04-09T23:11:02.186Z,34.00
2018-04-09T23:13:28.509Z,35.07
2018-04-09T23:15:55.560Z,29.63
2018-04-09T23:18:22.596Z,35.40
2018-04-09T23:20:49.632Z,34.73
2018-04-09T23:23:15.918Z,38.27
2018-04-09T23:25:42.203Z,42.20
2018-04-09T23:28:09.269Z,35.23
2018-04-09T23:30:35.569Z,37.63
2018-04-09T23:33:01.921Z,37.03
2018-04-09T23:35:28.952Z,38.30
2018-04-09T23:37:55.257Z,37.23
2018-04-09T23:40:21.547Z,38.70
2018-04-09T23:42:47.834Z,35.37
2018-04-09T23:45:14.138Z,36.00
2018-04-09T23:47:40.447Z,38.87
2018-04-09T23:50:06.730Z,34.93
2018-04-09T23:52:33.056Z,36.73
2018-04-09T23:54:59.346Z,35.00
2018-04-09T23:57:25.680Z,34.87
2018-04-09T23:59:51.943Z,33.00
